Time;durP1;ratioP1;P1;durP2;ratioP2;P2;SDS_P1;SDS_P2;PMS_P1;PMS_P2;Temp;Humidity;BMP_temperature;BMP_pressure;BME280_temperature;BME280_humidity;BME280_pressure;Samples;Min_cycle;Max_cycle;Signal;HPM_P1;HPM_P2
2022/12/27 20:13:45;;;;;;;50.13;9.63;;;;;;;;;;5055862;28;20420;-51
2022/12/27 20:16:13;;;;;;;72.30;11.15;;;;;;;;;;5052532;28;20491;-56
2022/12/27 20:18:40;;;;;;;50.25;9.05;;;;;;;;;;5054315;28;20041;-49
2022/12/27 20:21:11;;;;;;;70.03;11.25;;;;;;;;;;5053605;28;20033;-46
2022/12/27 20:23:38;;;;;;;49.35;9.85;;;;;;;;;;5049337;28;20115;-51
2022/12/27 20:26:04;;;;;;;48.88;9.13;;;;;;;;;;5044262;28;20052;-48
2022/12/27 20:28:31;;;;;;;50.17;9.00;;;;;;;;;;5052742;28;20450;-48
2022/12/27 20:30:58;;;;;;;66.45;10.85;;;;;;;;;;5052665;28;20048;-48
2022/12/27 20:33:24;;;;;;;39.72;8.40;;;;;;;;;;5051858;28;20059;-50
2022/12/27 20:35:56;;;;;;;53.75;10.10;;;;;;;;;;5051770;28;20509;-48
2022/12/27 20:38:22;;;;;;;40.90;7.72;;;;;;;;;;5056188;28;20110;-47
2022/12/27 20:40:49;;;;;;;50.80;9.07;;;;;;;;;;5053875;28;20140;-49
2022/12/27 20:43:17;;;;;;;80.82;10.50;;;;;;;;;;5055044;28;20045;-46
2022/12/27 20:45:44;;;;;;;56.40;9.32;;;;;;;;;;5051240;28;20059;-48
2022/12/27 20:48:10;;;;;;;52.55;8.68;;;;;;;;;;5054825;28;20063;-45
2022/12/27 20:50:40;;;;;;;60.90;9.25;;;;;;;;;;5054809;28;20120;-47
2022/12/27 20:53:07;;;;;;;70.50;9.25;;;;;;;;;;5053007;28;20117;-46
2022/12/27 20:55:34;;;;;;;61.17;9.50;;;;;;;;;;5051458;28;20041;-48
2022/12/27 20:58:01;;;;;;;61.20;11.85;;;;;;;;;;5056067;28;20063;-45
2022/12/27 21:00:27;;;;;;;41.53;8.40;;;;;;;;;;5053218;28;20055;-47
2022/12/27 21:02:54;;;;;;;37.38;7.80;;;;;;;;;;5050534;28;20270;-47
2022/12/27 21:05:21;;;;;;;62.50;9.73;;;;;;;;;;5051905;28;20049;-47
2022/12/27 21:07:47;;;;;;;64.25;9.63;;;;;;;;;;5051870;28;20029;-48
2022/12/27 21:10:13;;;;;;;79.60;11.77;;;;;;;;;;5053384;28;20044;-49
2022/12/27 21:12:40;;;;;;;72.40;14.93;;;;;;;;;;5048993;28;20507;-46
2022/12/27 21:15:07;;;;;;;73.53;11.45;;;;;;;;;;5037466;28;20049;-48
2022/12/27 21:17:33;;;;;;;47.75;10.55;;;;;;;;;;5040988;28;20041;-48
2022/12/27 21:20:00;;;;;;;30.90;8.52;;;;;;;;;;5040288;28;20060;-46
2022/12/27 21:22:26;;;;;;;55.38;9.13;;;;;;;;;;5039272;28;20091;-46
2022/12/27 21:24:53;;;;;;;45.58;8.63;;;;;;;;;;5038654;28;20048;-47
2022/12/27 21:27:19;;;;;;;73.95;11.00;;;;;;;;;;5042098;28;20049;-47
2022/12/27 21:29:46;;;;;;;48.83;9.02;;;;;;;;;;5040007;28;20043;-48
2022/12/27 21:32:12;;;;;;;56.20;9.90;;;;;;;;;;5038698;28;20060;-46
2022/12/27 21:34:40;;;;;;;68.95;11.40;;;;;;;;;;5038248;28;20059;-47
2022/12/27 21:37:07;;;;;;;66.13;11.45;;;;;;;;;;5042302;28;20523;-48
2022/12/27 21:39:38;;;;;;;67.45;11.32;;;;;;;;;;5045740;28;20081;-48
2022/12/27 21:42:05;;;;;;;45.25;8.77;;;;;;;;;;5037715;28;20132;-47
2022/12/27 21:44:34;;;;;;;45.13;8.40;;;;;;;;;;5041691;28;20045;-48
2022/12/27 21:47:00;;;;;;;51.72;8.90;;;;;;;;;;5038674;28;20037;-47
2022/12/27 21:49:27;;;;;;;53.83;8.60;;;;;;;;;;5037619;28;20038;-49
2022/12/27 21:51:54;;;;;;;57.22;8.05;;;;;;;;;;5039612;28;20284;-49
2022/12/27 21:54:21;;;;;;;59.95;8.85;;;;;;;;;;5035348;28;20137;-46
2022/12/27 21:56:47;;;;;;;58.60;8.43;;;;;;;;;;5039897;28;20038;-47
2022/12/27 21:59:14;;;;;;;47.10;7.38;;;;;;;;;;5041646;28;20100;-48
2022/12/27 22:01:41;;;;;;;44.08;8.23;;;;;;;;;;5037823;28;20056;-46
2022/12/27 22:04:17;;;;;;;67.55;9.40;;;;;;;;;;5037626;28;20045;-50
2022/12/27 22:06:44;;;;;;;55.35;8.43;;;;;;;;;;5038280;28;20048;-47
2022/12/27 22:09:13;;;;;;;49.15;8.20;;;;;;;;;;5040400;28;20040;-47
2022/12/27 22:11:40;;;;;;;61.17;9.50;;;;;;;;;;5034070;28;20080;-46
2022/12/27 22:14:06;;;;;;;39.53;8.60;;;;;;;;;;5037577;28;20047;-48
2022/12/27 22:16:34;;;;;;;55.45;8.98;;;;;;;;;;5038106;28;20048;-46
2022/12/27 22:19:01;;;;;;;71.57;10.18;;;;;;;;;;5036097;28;20049;-46
2022/12/27 22:21:29;;;;;;;36.78;7.35;;;;;;;;;;5037105;28;20033;-46
2022/12/27 22:23:56;;;;;;;33.53;7.03;;;;;;;;;;5064929;28;20071;-46
2022/12/27 22:26:23;;;;;;;57.28;9.13;;;;;;;;;;5038649;28;20120;-45
2022/12/27 22:28:50;;;;;;;40.38;7.45;;;;;;;;;;5035401;28;20040;-45
2022/12/27 22:31:18;;;;;;;68.88;10.38;;;;;;;;;;5034272;28;20037;-47
2022/12/27 22:33:45;;;;;;;70.10;10.23;;;;;;;;;;5036029;28;20068;-48
2022/12/27 22:36:14;;;;;;;44.50;8.75;;;;;;;;;;5039897;28;20048;-48
2022/12/27 22:38:40;;;;;;;61.25;9.15;;;;;;;;;;5038409;28;20100;-48
2022/12/27 22:41:06;;;;;;;65.38;9.35;;;;;;;;;;5037037;28;20498;-46
2022/12/27 22:43:33;;;;;;;35.42;7.25;;;;;;;;;;5029349;28;20030;-46
2022/12/27 22:46:03;;;;;;;37.58;8.07;;;;;;;;;;5040741;28;20037;-46
2022/12/27 22:48:30;;;;;;;54.80;9.55;;;;;;;;;;5037759;28;20098;-47
2022/12/27 22:50:56;;;;;;;42.55;8.68;;;;;;;;;;5035794;28;20095;-47
2022/12/27 22:53:23;;;;;;;47.95;9.05;;;;;;;;;;5036647;28;20056;-47
2022/12/27 22:55:49;;;;;;;58.80;9.23;;;;;;;;;;5037692;28;20470;-46
2022/12/27 22:58:15;;;;;;;61.05;10.43;;;;;;;;;;5037149;28;20052;-47
2022/12/27 23:00:42;;;;;;;53.38;9.15;;;;;;;;;;5035471;28;20657;-48
2022/12/27 23:03:09;;;;;;;64.55;10.45;;;;;;;;;;5036531;28;20571;-46
2022/12/27 23:05:36;;;;;;;41.80;8.98;;;;;;;;;;5038136;28;20041;-45
2022/12/27 23:08:02;;;;;;;44.38;8.55;;;;;;;;;;5038662;28;20060;-46
2022/12/27 23:10:32;;;;;;;49.45;9.15;;;;;;;;;;5036319;28;20238;-46
2022/12/27 23:12:58;;;;;;;43.92;9.18;;;;;;;;;;5036876;28;20143;-49
2022/12/27 23:15:25;;;;;;;38.88;7.95;;;;;;;;;;5038420;28;20124;-48
2022/12/27 23:17:52;;;;;;;48.17;8.98;;;;;;;;;;5033880;28;20045;-45
2022/12/27 23:20:18;;;;;;;46.78;8.80;;;;;;;;;;5035426;28;20061;-48
2022/12/27 23:22:45;;;;;;;60.50;9.48;;;;;;;;;;5039008;28;20487;-46
2022/12/27 23:25:11;;;;;;;67.05;10.35;;;;;;;;;;5037523;28;20541;-48
2022/12/27 23:27:37;;;;;;;48.05;9.18;;;;;;;;;;5037513;28;20053;-47
2022/12/27 23:30:04;;;;;;;59.40;8.80;;;;;;;;;;5033760;28;20520;-51
2022/12/27 23:32:31;;;;;;;44.65;8.13;;;;;;;;;;5036044;28;20451;-46
2022/12/27 23:34:57;;;;;;;38.00;7.60;;;;;;;;;;5036765;28;20572;-47
2022/12/27 23:37:24;;;;;;;50.20;8.68;;;;;;;;;;5035824;28;20084;-46
2022/12/27 23:39:50;;;;;;;34.25;7.32;;;;;;;;;;5038276;28;20514;-49
2022/12/27 23:42:16;;;;;;;61.17;9.50;;;;;;;;;;5036028;28;20152;-48
2022/12/27 23:44:43;;;;;;;58.80;8.80;;;;;;;;;;5036820;28;20041;-48
2022/12/27 23:47:09;;;;;;;48.28;8.90;;;;;;;;;;5037287;28;20043;-46
2022/12/27 23:49:36;;;;;;;64.78;9.00;;;;;;;;;;5036464;28;20029;-48
2022/12/27 23:52:03;;;;;;;35.38;6.82;;;;;;;;;;5040119;28;20041;-46
2022/12/27 23:54:29;;;;;;;46.90;8.02;;;;;;;;;;5037020;28;20106;-46
2022/12/27 23:56:56;;;;;;;56.83;9.07;;;;;;;;;;5035774;28;20692;-46
2022/12/27 23:59:22;;;;;;;35.83;7.00;;;;;;;;;;5035563;28;20519;-50
